Tiempo atmosférico en la estación meteorológica de Cuenca, Cuenca (945 m.)



Fecha
DESCASC
Temp. máxima en grados centígrados (hora)
DESCASC
Temp. mínima en grados centígrados (hora)
DESCASC
Temp. media en grados centígrados
DESCASC
Racha de viento máxima en m/sg (hora)
DESCASC
Velocidad máxima media en intervalos de 10 minutos(hora)
DESCASC
Precipitaciones diarias en mm
DESCASC
Precipitaciones de 00:00 a 06:00 en mm
DESCASC
Precipitaciones de 06:00 a 12:00 en mm
DESCASC
Precipitaciones de 12:00 a 18:00 en mm
DESCASC
Precipitaciones de 18:00 a 24:00 en mm
DESCASC
16-01-2020 14.2 (16:50) 2 (06:30) 8.1 5.83 (15:10) 3.06 (14:50) 0 0 0 0 0
15-01-2020 9.2 (16:30) -0.2 (09:00) 4.5 4.44 (15:10) 2.22 (15:10) 0 0 0 0 0
14-01-2020 11.8 (16:20) -4.7 (08:00) 3.6 4.72 (15:00) 2.22 (14:50) 0 0 0 0 0
13-01-2020 10.4 (16:20) -4.9 (08:10) 2.7 4.17 (22:50) 1.94 (16:20) 0 0 0 0 0
12-01-2020 12.8 (14:40) -3.5 (-00:0) 4.7 5.83 (15:00) 2.78 (15:00) 0 0 0 0 0
11-01-2020 12 (14:50) -3 (-00:0) 4.5 6.11 (14:30) 3.33 (14:10) 0 0 0 0 0
10-01-2020 11.1 (15:20) 0.5 (00:00) 5.8 8.89 (15:50) 4.44 (15:50) 0 0 0 0 0
09-01-2020 14.8 (16:40) -0.2 (00:00) 7.3 4.44 (21:20) 2.22 (21:20) 0 0 0 0 0
08-01-2020 17 (15:00) -0.7 (-00:0) 8.2 5.28 (18:00) 3.06 (14:30) 0 0 0 0 0
07-01-2020 18.1 (15:20) -1.9 (-00:0) 8.1 6.67 (14:30) 1.94 (15:20) 0 0 0 0 0
06-01-2020 17.2 (16:00) -1.7 (-00:0) 7.8 4.44 (16:30) 1.94 (16:30) 0 0 0 0 0
05-01-2020 16.8 (16:30) -3.1 (-00:0) 6.8 2.22 (13:00) 1.39 (13:00) 0 0 0 0 0
04-01-2020 12.9 (15:00) -2.2 (-00:0) 5.3 5.28 (15:20) 2.78 (15:40) 0 0 0 0 0
03-01-2020 12.5 (14:10) -1.7 (-00:0) 5.4 6.39 (14:20) 2.78 (15:40) 0 0 0 0 0
02-01-2020 17.2 (16:00) -2.7 (-00:0) 7.3 2.5 (14:50) 1.67 (15:20) 0 0 0 0 0
01-01-2020 17.7 (15:50) -1.5 (-00:0) 8.1 4.17 (19:10) 2.22 (19:10) 0 0 0 0 0
31-12-2019 15.6 (15:40) -1.2 (-00:0) 7.2 3.89 (04:40) 2.5 (20:20) 0 0 0 0 0
30-12-2019 15.2 (15:40) -1.6 (-00:0) 6.8 3.61 (14:40) 1.67 (14:00) 0 0 0 0 0
29-12-2019 17 (16:10) -1.7 (-00:0) 7.6 2.5 (16:40) 1.39 (19:30) 0 0 0 0 0
28-12-2019 18.5 (16:10) -2.1 (-00:0) 8.2 2.22 (20:20) 1.11 (14:40) 0 0 0 0 0
27-12-2019 16.8 (15:30) -0.6 (-00:0) 8.1 2.78 (18:20) 1.67 (18:30) 0 0 0 0 0
26-12-2019 18.2 (15:00) 3.1 (00:00) 10.7 5.83 (13:30) 1.94 (13:30) 0 0 0 0 0
25-12-2019 20.7 (16:10) 1.5 (00:00) 11.1 3.33 (17:10) 1.67 (17:10) 0 0 0 0 0
24-12-2019 18.3 (16:00) 1.3 (00:00) 9.8 4.44 (00:10) 2.22 (19:00) 0 0 0 0 0
23-12-2019 13.8 (15:50) 3.7 (00:00) 8.8 6.94 (13:50) 2.5 (12:50) 0.2 0.2 0 0 0
22-12-2019 10.7 (15:00) 8 (00:00) 9.3 17.5 (00:30) 6.94 (02:10) 0 0 0 0 0
21-12-2019 14.1 (16:00) 9 (00:00) 11.6 19.72 (20:30) 7.5 (20:50) 20.2 3.4 8.6 8 0.2
20-12-2019 12.5 (23:20) 10.5 (00:00) 11.5 21.94 (07:00) 8.06 (05:40) 43.6 7.8 7 2.6 26.2

Gráficas

Temp. máximas Temp. mínimas Temp. medias Precipitaciones Rachas de viento máximas Velocidades máximas media en intervalos de 10 minutos

Datos horarios

Fecha y hora oficial Temperatura (ºC) Velocidad del viento (km/h) Dirección del viento Racha (km/h) Dirección de racha Precipitación (mm) Presión (hPa) Tendencia (hPa) Humedad (%)
2020-01-18 23:00:00 7.8 4 Noroeste 21 Noroeste 0.4 910.1 -1.3 92
2020-01-18 22:00:00 7.8 8 Oeste 20 Sudoeste 0.2 910.7 -1.6 96
2020-01-18 21:00:00 7.4 6 Sudoeste 11 Sudeste 0.8 911.2 -1.6 98
2020-01-18 20:00:00 7.1 5 Sudeste 12 Sudoeste 0.6 911.4 -1.9 98
2020-01-18 19:00:00 7.1 6 Sudoeste 17 Sudoeste 0 912.3 -2.1 97
2020-01-18 18:00:00 7.2 5 Sudoeste 23 Sudoeste 0 912.8 -2.4 97
2020-01-18 17:00:00 7.3 9 Sudoeste 20 Sudoeste 0 913.3 -3.1 96
2020-01-18 16:00:00 6.9 3 Sur 12 Sur 0 914.4 -3.1 94
2020-01-18 15:00:00 6.6 3 Sudeste 8 Sudeste 0 915.2 -3.7 93
2020-01-18 14:00:00 6.5 3 Sur 14 Sudoeste 0 916.4 -2.9 91
2020-01-18 13:00:00 6.8 4 Sur 12 Sudoeste 0 917.5 -2 83
2020-01-18 12:00:00 6.2 7 Sudeste 16 Sudeste 0 918.9 -0.5 85
2020-01-18 11:00:00 5 5 Sudeste 12 Sur 0.2 919.3 -0.2 93
2020-01-18 10:00:00 3.9 4 Sudeste 8 Sudoeste 0 919.5 0.1 95
2020-01-18 09:00:00 3.2 4 Sudeste 12 Sudeste 0 919.4 0 93
2020-01-18 08:00:00 3.1 3 Noroeste 12 Nordeste 0 919.5 0 90
2020-01-18 07:00:00 3 5 Sudeste 11 Sudeste 0 919.4 0.1 89
2020-01-18 06:00:00 3 2 Nordeste 10 Norte 0 919.4 -0.3 90
2020-01-18 05:00:00 2.4 4 Oeste 10 Oeste 0 919.5 -0.8 90
2020-01-18 04:00:00 2.3 2 Oeste 10 Sudoeste 0 919.3 -1.6 89
2020-01-18 03:00:00 2.7 2 Sur 8 Nordeste 0 919.7 -1.5 90
2020-01-18 02:00:00 2.6 4 Oeste 8 Oeste 0 920.3 -- 87
2020-01-18 01:00:00 3.3 4 Sudoeste 8 Sudoeste 0 920.9 -0.2 84
2020-01-18 00:00:00 3.7 5 Oeste 9 Sudoeste 0 921.2 0.4 83
2020-01-17 23:00:00 4.1 0 Calma 5 Noroeste 0 -- -- 84
2020-01-17 22:00:00 4.7 3 Norte 8 Norte 0 921.1 0.8 82
2020-01-17 21:00:00 5.8 3 Norte 16 Noroeste 0 920.8 0.8 79
2020-01-17 20:00:00 6.9 5 Noroeste 13 Noroeste 0 920.8 1.3 74
2020-01-17 19:00:00 8.1 5 Noroeste 16 Noroeste 0 920.3 1.2 71
2020-01-17 18:00:00 9.4 8 Noroeste 25 Noroeste 0 920 0.8 63
2020-01-17 17:00:00 10.5 10 Noroeste 27 Noroeste 0 919.5 0.1 59
2020-01-17 16:00:00 11.5 6 Noroeste 24 Noroeste 0 919.1 -0.4 58
2020-01-17 15:00:00 10.4 9 Noroeste 26 Oeste 0 919.2 -1 61
2020-01-17 14:00:00 10.1 13 Noroeste 27 Oeste 0 919.4 -0.5 63
2020-01-17 13:00:00 10.1 10 Noroeste 25 Oeste 0 919.5 0.2 63
2020-01-17 12:00:00 7.8 9 Noroeste 27 Noroeste 0 920.2 1.3 72
2020-01-17 11:00:00 6.5 2 Noroeste 9 Norte 0 919.9 1.3 76
2020-01-17 10:00:00 5.6 3 Noroeste 9 Norte 0 919.3 1.6 75
2020-01-17 09:00:00 4.8 3 Noroeste 8 Norte 0 918.9 1.5 75
2020-01-17 08:00:00 4.4 3 Norte 10 Norte 0 918.6 1.3 74
2020-01-17 07:00:00 4.1 3 Norte 6 Norte 0 917.7 0.3 73
2020-01-17 06:00:00 5 0 Calma 6 Sudeste 0 917.4 -0.2 68
2020-01-17 05:00:00 5.6 0 Calma 6 Sur 0 917.3 -0.4 65
2020-01-17 04:00:00 5.5 3 Sudeste 6 Sudeste 0 917.4 -0.3 66
2020-01-17 03:00:00 5.5 0 Calma 11 Sudeste 0 917.6 -0.1 66
2020-01-17 02:00:00 5.4 3 Sudeste 10 Sudeste 0 917.7 0.2 68
2020-01-17 01:00:00 4.8 4 Sudeste 8 Sudeste 0 917.7 0.4 69
2020-01-17 00:00:00 4.8 4 Sudeste 8 Este 0 917.7 0.5 70
2020-01-16 23:00:00 4.7 2 Sudoeste 6 Oeste 0 917.5 0.6 69
2020-01-16 22:00:00 5.7 0 Calma 9 Este 0 917.3 0.6 66
2020-01-16 21:00:00 7.1 4 Sudeste 10 Sudeste 0 917.2 0.9 59
2020-01-16 20:00:00 8.2 5 Sudeste 9 Sudeste 0 916.9 1 56
2020-01-16 19:00:00 9.8 5 Sudoeste 14 Oeste 0 916.7 0.7 51
2020-01-16 18:00:00 11.7 7 Sudoeste 15 Sudoeste 0 916.3 -0.1 49
2020-01-16 17:00:00 13.9 8 Sudoeste 18 Sudoeste 0 915.9 -1.1 48
2020-01-16 16:00:00 13.7 8 Sudoeste 21 Sudoeste 0 916 -1.4 53
2020-01-16 15:00:00 13.7 9 Sudoeste 21 Oeste 0 916.4 -1.8 57
2020-01-16 14:00:00 13.1 7 Oeste 20 Oeste 0 917 -1.1 62
2020-01-16 13:00:00 12.4 4 Sudoeste 12 Sudoeste 0 917.4 -0.4 64
2020-01-16 12:00:00 10.8 4 Oeste 7 Oeste 0 918.2 0.3 68
2020-01-16 11:00:00 7.2 4 Oeste 8 Noroeste 0 918.1 0.3 79
2020-01-16 10:00:00 3.9 2 Sur 4 Oeste 0 917.8 0.3 89
2020-01-16 09:00:00 2.2 0 Calma 5 Este 0 917.9 0.7 91
2020-01-16 08:00:00 2.3 0 Calma 4 Oeste 0 917.8 0.5 91
2020-01-16 07:00:00 2.3 0 Calma 6 Noroeste 0 917.5 0.1 92
2020-01-16 06:00:00 2.6 3 Sudeste 4 Sudeste 0 917.2 -0.5 90
2020-01-16 05:00:00 3.1 2 Este 6 Este 0 917.3 -0.1 92
2020-01-16 04:00:00 3.7 3 Sudeste 9 Norte 0 917.4 -0.3 89
2020-01-16 03:00:00 4.6 3 Noroeste 8 Noroeste 0 917.7 -0.2 87
2020-01-16 02:00:00 5.6 0 Calma 5 Noroeste 0 917.4 -0.3 84
2020-01-16 01:00:00 6.7 2 Sudeste 4 Sudeste 0 917.7 0.1 79
2020-01-16 00:00:00 6.9 0 Calma 4 Oeste 0 917.9 0.5 78
2020-01-15 23:00:00 7.1 0 Calma 4 Oeste 0 917.7 0.4 77
2020-01-15 22:00:00 7.3 3 Norte 6 Nordeste 0 917.6 0.8 78
2020-01-15 21:00:00 7.4 3 Sudoeste 6 Sudoeste 0 917.4 1 75
2020-01-15 20:00:00 7.8 0 Calma 4 Sudeste 0 917.3 1.4 74
2020-01-15 19:00:00 8 3 Sudeste 5 Este 0 916.8 1 72
2020-01-15 18:00:00 8.5 3 Sudoeste 8 Noroeste 0 916.4 0.7 70
2020-01-15 17:00:00 9.1 2 Oeste 9 Norte 0 915.9 0.1 67
2020-01-15 16:00:00 8.7 3 Norte 16 Oeste 0 915.8 -0.2 65
2020-01-15 15:00:00 8.7 7 Oeste 13 Noroeste 0 915.7 -0.5 66
2020-01-15 14:00:00 8.3 3 Oeste 5 Oeste 0 915.8 0 67
2020-01-15 13:00:00 8.5 3 Noroeste 6 Oeste 0 916 1.1 67
2020-01-15 12:00:00 7.5 3 Sudoeste 7 Oeste 0 916.2 2 74
2020-01-15 11:00:00 4.2 2 Sudoeste 5 Sudoeste 0 915.8 2.1 73
2020-01-15 10:00:00 0.5 0 Calma 6 Este 0 914.9 1.5 86
2020-01-15 09:00:00 -0.2 0 Calma 6 Norte 0 914.2 1 87
2020-01-15 08:00:00 0.3 3 Este 5 Sudoeste 0 913.7 0.5 87
2020-01-15 07:00:00 0.7 0 Calma 6 Sudoeste 0 913.4 0.2 83
2020-01-15 06:00:00 1.2 3 Sudeste 6 Sudoeste 0 913.2 -0.1 82
2020-01-15 05:00:00 1.1 0 Calma 4 Oeste 0 913.2 0 80
2020-01-15 04:00:00 1 2 Sudoeste 7 Este 0 913.2 0 82
2020-01-15 03:00:00 0.6 2 Sudeste 8 Este 0 913.3 0 81
2020-01-15 02:00:00 0.4 3 Sudoeste 5 Oeste 0 913.2 -0.1 81
2020-01-15 01:00:00 0.6 0 Calma 4 Oeste 0 913.2 0 79
2020-01-15 00:00:00 1 0 Calma 4 Sudeste 0 913.3 0.3 80
2020-01-14 23:00:00 1.9 2 Sur 13 Norte 0 913.3 0.4 75
2020-01-14 22:00:00 2.1 3 Norte 8 Norte 0 913.2 0.7 77
2020-01-14 21:00:00 3.4 4 Norte 8 Norte 0 913 1.3 72
2020-01-14 20:00:00 4.8 2 Norte 8 Noroeste 0 912.9 1.4 68
2020-01-14 19:00:00 6 3 Noroeste 15 Oeste 0 912.5 1.1 60
2020-01-14 18:00:00 8.6 4 Oeste 12 Oeste 0 911.7 0.2 54
2020-01-14 17:00:00 11.5 4 Noroeste 12 Noroeste 0 911.5 -0.4 45
2020-01-14 16:00:00 11.4 4 Noroeste 14 Noroeste 0 911.4 -- 46
2020-01-14 15:00:00 10.8 6 Noroeste 17 Noroeste 0 911.5 -1.6 46
2020-01-14 14:00:00 10.3 6 Noroeste 12 Noroeste 0 911.9 -1.4 43
2020-01-14 13:00:00 8.4 3 Norte 11 Norte 0 -- -- 56
2020-01-14 12:00:00 5 4 Noroeste 7 Noroeste 0 913.1 0.4 62
2020-01-14 11:00:00 1.4 3 Noroeste 5 Noroeste 0 913.3 0.7 73
2020-01-14 10:00:00 -2.5 0 Calma 5 Sur 0 913.1 0.8 88
2020-01-14 09:00:00 -4.6 2 Sudoeste 4 Sudoeste 0 912.7 0.5 87
2020-01-14 08:00:00 -4.7 2 Sur 4 Sudeste 0 912.6 0.3 87
2020-01-14 07:00:00 -4.4 3 Sudeste 5 Sudeste 0 912.3 0 87
2020-01-14 06:00:00 -3.9 0 Calma 5 Sudeste 0 912.2 -0.5 86
2020-01-14 05:00:00 -3.1 3 Nordeste 13 Norte 0 912.3 -0.8 88
2020-01-14 04:00:00 -3.2 0 Calma 5 Sudeste 0 912.3 -1.2 88
2020-01-14 03:00:00 -2.8 2 Sudeste 4 Sudeste 0 912.7 -1.2 83
2020-01-14 02:00:00 -2.3 2 Este 5 Sudoeste 0 913.1 -0.6 84
2020-01-14 01:00:00 -1.6 0 Calma 5 Sudeste 0 913.5 -0.1 82
2020-01-14 00:00:00 -0.6 5 Norte 13 Norte 0 913.9 0 80
2020-01-13 23:00:00 0.4 4 Nordeste 15 Nordeste 0 913.7 -0.2 75
2020-01-13 22:00:00 1.1 3 Norte 10 Norte 0 913.6 -0.2 74
2020-01-13 21:00:00 2 5 Norte 12 Norte 0 913.9 0.4 69
2020-01-13 20:00:00 3.6 3 Norte 9 Norte 0 913.9 0.1 64
2020-01-13 19:00:00 5.4 3 Norte 8 Noroeste 0 913.8 0.1 57
2020-01-13 18:00:00 7.6 3 Oeste 9 Noroeste 0 913.5 -0.5 50
2020-01-13 17:00:00 9.5 5 Noroeste 13 Noroeste 0 913.8 -0.3 42
2020-01-13 16:00:00 10.1 6 Noroeste 12 Oeste 0 913.7 -1.5 40
2020-01-13 15:00:00 9.9 5 Noroeste 13 Norte 0 914 -2.1 38
2020-01-13 14:00:00 8.1 0 Calma 6 Oeste 0 914.1 -2.1 40
2020-01-13 13:00:00 6.7 3 Sudoeste 5 Oeste 0 915.2 -0.5 44
2020-01-13 12:00:00 4 3 Oeste 5 Sudoeste 0 916.1 0.3 53
2020-01-13 11:00:00 0.8 3 Oeste 5 Oeste 0 916.2 0.4 62
2020-01-13 10:00:00 -2.7 2 Sudoeste 4 Oeste 0 915.7 -0.1 75
2020-01-13 09:00:00 -4.8 0 Calma 3 Sudeste 0 915.8 -0.1 80
2020-01-13 08:00:00 -4.8 0 Calma 3 Este 0 915.8 -0.4 82
2020-01-13 07:00:00 -4.7 0 Calma 3 Sur 0 915.8 -1 82
2020-01-13 06:00:00 -4.4 0 Calma 4 Sudoeste 0 915.9 -1.3 79
2020-01-13 05:00:00 -3.8 2 Sudoeste 3 Sudoeste 0 916.2 -1.2 78
2020-01-13 04:00:00 -3 0 Calma 3 Sur 0 916.8 -1.5 79
2020-01-13 03:00:00 -2.6 0 Calma 4 Sur 0 917.2 -1.5 77
2020-01-13 02:00:00 -2 0 Calma 4 Sur 0 917.4 -1.4 75
2020-01-13 01:00:00 -1.6 0 Calma 4 Sur 0 918.3 -0.7 73
2020-01-13 00:00:00 -0.7 0 Calma 5 Sur 0 918.7 -0.3 73
2020-01-12 23:00:00 0.1 2 Norte 7 Sur 0 918.8 -0.1 69
2020-01-12 22:00:00 1 3 Sudoeste 5 Oeste 0 919 0.8 65
2020-01-12 21:00:00 2.4 3 Sur 9 Norte 0 919 1.1 61
2020-01-12 20:00:00 4.4 4 Norte 8 Norte 0 918.9 1.3 54
2020-01-12 19:00:00 6 2 Nordeste 8 Noroeste 0 918.2 0.8 52
2020-01-12 18:00:00 8.7 3 Noroeste 16 Noroeste 0 917.9 0.6 44
2020-01-12 17:00:00 11 8 Noroeste 18 Noroeste 0 917.6 -0.1 37
2020-01-12 16:00:00 12.5 9 Oeste 20 Noroeste 0 917.4 -1.3 33
2020-01-12 15:00:00 12.2 10 Noroeste 21 Oeste 0 917.3 -2.4 35
2020-01-12 14:00:00 11.8 5 Noroeste 12 Noroeste 0 917.7 -2.3 33
2020-01-12 13:00:00 10 3 Noroeste 9 Norte 0 918.7 -0.8 38
2020-01-12 12:00:00 5.5 3 Oeste 6 Oeste 0 919.7 0.6 49
2020-01-12 11:00:00 1.9 3 Sudoeste 13 Norte 0 920 0.8 61
2020-01-12 10:00:00 -1.4 4 Norte 13 Norte 0 919.5 0.4 69
2020-01-12 09:00:00 -3.2 4 Norte 18 Noroeste 0 919.1 0.2 76
2020-01-12 08:00:00 -3.1 6 Norte 19 Norte 0 919.2 0.1 77
2020-01-12 07:00:00 -3.2 7 Norte 17 Norte 0 919.1 -0.2 78
2020-01-12 06:00:00 -3.3 3 Norte 18 Norte 0 918.9 -0.5 80
2020-01-12 05:00:00 -3.1 3 Nordeste 12 Norte 0 919.1 -0.3 82
2020-01-12 04:00:00 -2.6 0 Calma 6 Nordeste 0 919.3 -0.3 80
2020-01-12 03:00:00 -2.4 3 Sudeste 5 Sur 0 919.4 -0.6 80
2020-01-12 02:00:00 -2 3 Sudeste 4 Sudeste 0 919.4 -0.6 79
2020-01-12 01:00:00 -1.1 0 Calma 4 Sudoeste 0 919.6 -0.2 77
2020-01-12 00:00:00 -0.5 2 Sudoeste 6 Sur 0 920 0.2 73
2020-01-11 23:00:00 0.3 2 Nordeste 13 Nordeste 0 920 0.5 70
2020-01-11 22:00:00 1.6 0 Calma 7 Este 0 919.8 0.6 69
2020-01-11 21:00:00 2.9 0 Calma 8 Nordeste 0 919.8 1 64
2020-01-11 20:00:00 4.4 2 Noroeste 10 Nordeste 0 919.5 0.9 59
2020-01-11 19:00:00 6.6 3 Norte 10 Norte 0 919.2 0.7 53
2020-01-11 18:00:00 8.8 6 Noroeste 18 Noroeste 0 918.8 0.3 45
2020-01-11 17:00:00 11.6 6 Noroeste 19 Noroeste 0 918.6 -0.2 38
2020-01-11 16:00:00 11.4 10 Noroeste 22 Noroeste 0 918.5 -1.2 38
2020-01-11 15:00:00 11.4 12 Noroeste 22 Noroeste 0 918.5 -2 39
2020-01-11 14:00:00 11 10 Noroeste 19 Noroeste 0 918.8 -2 39
2020-01-11 13:00:00 9.3 5 Oeste 8 Oeste 0 919.7 -0.5 49
2020-01-11 12:00:00 5.9 4 Noroeste 8 Noroeste 0 920.5 0.8 59
2020-01-11 11:00:00 3.4 3 Sudoeste 6 Oeste 0 920.8 1.3 68
2020-01-11 10:00:00 -0.9 2 Sudoeste 4 Sudeste 0 920.2 1.1 84
2020-01-11 09:00:00 -3 2 Sudeste 4 Sudeste 0 919.7 0.8 85
2020-01-11 08:00:00 -2.8 2 Sudeste 4 Sur 0 919.5 0.6 86
2020-01-11 07:00:00 -2.1 0 Calma 7 Sudoeste 0 919.1 0.1 84
2020-01-11 06:00:00 -1.5 0 Calma 5 Oeste 0 918.9 0 80
2020-01-11 05:00:00 -0.7 2 Sur 12 Oeste 0 918.9 0.1 80
2020-01-11 04:00:00 0.5 4 Noroeste 10 Noroeste 0 919 0.4 79
2020-01-11 03:00:00 1 5 Noroeste 10 Oeste 0 918.9 -0.2 77
2020-01-11 02:00:00 1.7 5 Oeste 19 Norte 0 918.8 0.5 76
2020-01-11 01:00:00 1.7 3 Norte 17 Norte 0 918.6 0 76
2020-01-11 00:00:00 2 4 Noroeste 9 Norte 0 919.1 1.2 73
2020-01-10 23:00:00 2.9 2 Sudeste 8 Norte 0 918.3 0.5 70
2020-01-10 22:00:00 4.1 3 Noroeste 11 Norte 0 918.6 1.3 68
2020-01-10 21:00:00 5.6 2 Noroeste 12 Norte 0 917.9 1.3 58
2020-01-10 20:00:00 6.5 3 Norte 16 Nordeste 0 917.8 1.8 56
2020-01-10 19:00:00 6.9 3 Noroeste 13 Noroeste 0 917.3 1.4 54
2020-01-10 18:00:00 8.1 4 Norte 23 Nordeste 0 916.6 1.2 49
2020-01-10 17:00:00 9.2 6 Norte 22 Nordeste 0 916 0.3 46
2020-01-10 16:00:00 10 12 Nordeste 32 Nordeste 0 915.9 -0.2 41
2020-01-10 15:00:00 10.7 8 Norte 30 Este 0 915.4 -0.9 40
2020-01-10 14:00:00 10.4 7 Norte 26 Norte 0 915.7 -0.6 40
2020-01-10 13:00:00 10.1 6 Norte 28 Nordeste 0 916.1 0.1 44
2020-01-10 12:00:00 8.8 8 Norte 28 Noroeste 0 916.3 0.6 47
2020-01-10 11:00:00 6.2 9 Norte 25 Nordeste 0 916.3 1.3 61
2020-01-10 10:00:00 1.8 3 Oeste 6 Sudoeste 0 916 1.7 87
2020-01-10 09:00:00 0.7 2 Noroeste 5 Oeste 0 915.7 1.6 88
2020-01-10 08:00:00 1.3 3 Sudoeste 8 Oeste 0 915 0.8 89
2020-01-10 07:00:00 1.4 3 Noroeste 11 Noroeste 0 914.3 0 91
2020-01-10 06:00:00 1.2 2 Noroeste 11 Norte 0 914.1 -0.5 90
2020-01-10 05:00:00 1.6 3 Norte 10 Noroeste 0 914.2 -0.3 90
2020-01-10 04:00:00 1.8 3 Norte 9 Nordeste 0 914.3 -0.2 89
2020-01-10 03:00:00 2.2 4 Sur 7 Norte 0 914.6 -0.2 86
2020-01-10 02:00:00 2.4 3 Norte 13 Norte 0 914.5 -0.6 87
2020-01-10 01:00:00 2.5 3 Norte 7 Norte 0 914.5 -0.9 86
2020-01-10 00:00:00 3.2 2 Sudeste 9 Norte 0 914.8 -0.8 84
2020-01-09 23:00:00 4.3 4 Norte 12 Norte 0 915.1 0.6 80
2020-01-09 22:00:00 4.9 4 Noroeste 16 Nordeste 0 915.4 0.2 78
2020-01-09 21:00:00 5.8 5 Norte 10 Norte 0 915.6 0.5 74
2020-01-09 20:00:00 7.7 2 Sudeste 6 Sudeste 0 914.5 -0.3 68
2020-01-09 19:00:00 9.5 2 Este 8 Oeste 0 915.2 0.7 62
2020-01-09 18:00:00 11.8 4 Oeste 10 Oeste 0 915.1 0.2 52
2020-01-09 17:00:00 14.1 7 Oeste 15 Oeste 0 914.8 -1 44
2020-01-09 16:00:00 14.7 5 Sur 12 Sur 0 914.5 -2.1 41
2020-01-09 15:00:00 14 4 Sudeste 12 Sudeste 0 914.9 -2.4 44
2020-01-09 14:00:00 13.3 3 Oeste 13 Sudoeste 0 915.8 -1.7 52
2020-01-09 13:00:00 11.7 3 Sur 8 Sudoeste 0 916.6 -0.8 55
2020-01-09 12:00:00 9 4 Oeste 6 Sudoeste 0 917.3 0.1 67
2020-01-09 11:00:00 5.8 2 Sudoeste 5 Oeste 0 917.5 0.5 73
2020-01-09 10:00:00 1.6 0 Calma 3 Noroeste 0 917.4 0.3 93
2020-01-09 09:00:00 -0.2 0 Calma 3 Oeste 0 917.2 -0.1 92
2020-01-09 08:00:00 0.1 0 Calma 3 Sudoeste 0 917 -0.7 93
2020-01-09 07:00:00 0.2 0 Calma 3 Este 0 917.1 -1.1 92
2020-01-09 06:00:00 0.7 0 Calma 3 Sudeste 0 917.3 -1.1 93
2020-01-09 05:00:00 1.1 2 Sudeste 4 Sudeste 0 917.7 -0.8 92
2020-01-09 04:00:00 1.4 0 Calma 3 Sudeste 0 918.2 -0.5 89
2020-01-09 03:00:00 1.9 2 Sudeste 6 Norte 0 918.4 -0.6 88
2020-01-09 02:00:00 2.3 0 Calma 5 Sudoeste 0 918.5 -0.8 87
2020-01-09 01:00:00 3.3 0 Calma 3 Sudeste 0 918.7 -0.6 86
2020-01-09 00:00:00 4.1 0 Calma 5 Norte 0 919 -0.2 82
2020-01-08 23:00:00 4.7 0 Calma 4 Noroeste 0 919.3 0.1 83
2020-01-08 22:00:00 5.8 0 Calma 6 Oeste 0 919.3 0.3 80
2020-01-08 21:00:00 6.8 4 Este 10 Sudeste 0 919.2 0.5 77
2020-01-08 20:00:00 8 2 Sudeste 14 Sudeste 0 919.2 1.1 65
2020-01-08 19:00:00 9.7 5 Sudeste 16 Sudeste 0 919 1.3 56
2020-01-08 18:00:00 11.9 10 Sudeste 19 Sudeste 0 918.7 1 49
2020-01-08 17:00:00 16.2 5 Sur 14 Sudeste 0 918.1 0.1 37
2020-01-08 16:00:00 16.4 8 Sudeste 18 Sur 0 917.7 -0.9 37
2020-01-08 15:00:00 17 8 Sur 19 Sur 0 917.7 -1.8 38
2020-01-08 14:00:00 15.6 4 Sudoeste 9 Sudoeste 0 918 -1.7 42
2020-01-08 13:00:00 13 4 Sudoeste 7 Sudoeste 0 918.6 -0.8 42
2020-01-08 12:00:00 9.9 3 Oeste 5 Oeste 0 919.5 0.5 47
2020-01-08 11:00:00 5.9 2 Sur 8 Sudeste 0 919.7 1.3 54
2020-01-08 10:00:00 1.1 3 Sudeste 12 Noroeste 0 919.4 1.1 68
2020-01-08 09:00:00 -0.2 3 Sudeste 5 Sudeste 0 919 0.6 71
2020-01-08 08:00:00 -0.4 2 Sur 4 Sudoeste 0 918.4 -0.3 72
2020-01-08 07:00:00 -0.4 0 Calma 4 Sudeste 0 918.3 -0.7 71
2020-01-08 06:00:00 -0.4 0 Calma 3 Sur 0 918.4 -0.6 70
2020-01-08 05:00:00 -0.6 0 Calma 5 Sudeste 0 918.7 -0.4 71
2020-01-08 04:00:00 -0.4 0 Calma 5 Sudeste 0 919 -0.2 69
2020-01-08 03:00:00 0.2 2 Sudeste 6 Sudeste 0 919 -0.7 68
2020-01-08 02:00:00 1.5 3 Norte 18 Norte 0 919.1 -0.4 56
2020-01-08 01:00:00 1.6 7 Norte 15 Norte 0 919.2 -0.5 59
2020-01-08 00:00:00 2.2 4 Sudeste 18 Norte 0 919.7 0 61
2020-01-07 23:00:00 3.2 2 Sudeste 8 Norte 0 919.5 0 61
2020-01-07 22:00:00 4.5 7 Norte 14 Norte 0 919.7 0.3 55
2020-01-07 21:00:00 5.7 5 Norte 13 Norte 0 919.7 0.7 52
2020-01-07 20:00:00 7.6 6 Noroeste 12 Noroeste 0 919.5 0.7 46
2020-01-07 19:00:00 10.3 5 Norte 11 Norte 0 919.4 0.7 39
2020-01-07 18:00:00 13.3 3 Noroeste 15 Noroeste 0 919 0.2 34
2020-01-07 17:00:00 17.2 5 Noroeste 15 Noroeste 0 918.8 -0.6 27
2020-01-07 16:00:00 18 6 Noroeste 19 Noroeste 0 918.7 -1.6 25
2020-01-07 15:00:00 17.9 5 Noroeste 24 Norte 0 918.8 -2.2 24
2020-01-07 14:00:00 15.9 4 Noroeste 9 Norte 0 919.4 -2 32
2020-01-07 13:00:00 12.4 3 Norte 6 Oeste 0 920.3 -0.8 39
2020-01-07 12:00:00 8.4 3 Sudoeste 6 Sur 0 921 0.4 45
2020-01-07 11:00:00 4.7 3 Sudeste 8 Norte 0 921.4 1.2 58
2020-01-07 10:00:00 0.1 2 Sudeste 4 Este 0 921.1 1 74
2020-01-07 09:00:00 -1.8 2 Sudeste 5 Sudeste 0 920.6 0.8 78
2020-01-07 08:00:00 -1.6 3 Sudeste 9 Nordeste 0 920.2 0.4 77
2020-01-07 07:00:00 -1.2 0 Calma 4 Sudoeste 0 920.1 -0.1 77
2020-01-07 06:00:00 -1.2 3 Sur 6 Sudeste 0 919.8 -0.3 77
2020-01-07 05:00:00 -0.5 0 Calma 7 Sur 0 919.8 -0.1 73
2020-01-07 04:00:00 0.9 5 Norte 16 Nordeste 0 920.2 0.3 66
2020-01-07 03:00:00 -0.1 0 Calma 4 Sur 0 920.1 0.2 73
2020-01-07 02:00:00 0.6 0 Calma 4 Sudeste 0 919.9 0.1 71
2020-01-07 01:00:00 1.1 2 Sur 5 Sudeste 0 919.9 0.3 69
2020-01-07 00:00:00 1.9 0 Calma 11 Norte 0 919.9 0.8 65
2020-01-06 23:00:00 2.6 3 Norte 12 Norte 0 919.8 1.1 57
2020-01-06 22:00:00 3.7 3 Este 9 Norte 0 919.6 1.2 61
2020-01-06 21:00:00 5.3 5 Norte 9 Norte 0 919.1 0.9 55
2020-01-06 20:00:00 6.7 3 Sur 4 Sudeste 0 918.7 0.9 52
2020-01-06 19:00:00 8.7 0 Calma 12 Noroeste 0 918.4 0.8 46
2020-01-06 18:00:00 12.4 3 Noroeste 12 Norte 0 918.2 1 37
2020-01-06 17:00:00 16.1 4 Norte 16 Noroeste 0 917.8 0.1 28
2020-01-06 16:00:00 17 6 Oeste 12 Oeste 0 917.6 -0.8 26
2020-01-06 15:00:00 16.7 5 Sudoeste 10 Oeste 0 917.2 -1.7 19
2020-01-06 14:00:00 15.3 3 Noroeste 8 Noroeste 0 917.7 -1.4 25
2020-01-06 13:00:00 11.7 3 Noroeste 8 Noroeste 0 918.4 -0.8 41
2020-01-06 12:00:00 8.2 4 Noroeste 9 Norte 0 918.9 0.3 44
2020-01-06 11:00:00 5.1 3 Sur 4 Sur 0 919.1 0.8 61
2020-01-06 10:00:00 0 2 Sudeste 3 Sudeste 0 919.2 1.1 78